Latest Weather Observations for Arlington Reef

IDQ60801

Issued at 7:35 am EST Friday 25 April 2014 (issued every 30 minutes, with the page automatically refreshed every 10 minutes)

About weather observations | Map of weather stations | Latest weather observations for QLD | Other Formats
Station Details ID: 200879 Name: ARLINGTON REEF Lat: -16.72 Lon: 146.11 Height: 0.0 m
Data from the previous 72 hours. | See also: Recent months at Arlington Reef
Date/Time
EST
Temp
°C
App
Temp
°C
Dew
Point
Rel
Hum
%
Delta-T
°C
Wind Press
QNH
hPa
Press
MSL
hPa
Rain
since 9 am
mm
Dir
 
Spd
km/h
Gust
km/h
Spd
kts
Gust
kts
25/07:30am - - - - - SE 28 33 15 18 1011.5 - -
25/07:00am - - - - - ESE 28 33 15 18 1011.1 1011.1 -
25/06:30am - - - - - ESE 20 24 11 13 1010.9 - -
25/06:00am - - - - - E 17 28 9 15 1010.5 1010.5 -
25/05:30am - - - - - E 28 39 15 21 1010.1 - -
25/05:07am - - - - - E 39 48 21 26 1009.9 - -
25/05:00am - - - - - SE 30 46 16 25 1010.0 1010.0 -
25/04:30am - - - - - SE 28 32 15 17 1009.5 - -
25/04:00am - - - - - SE 32 35 17 19 1009.4 1009.4 -
25/03:30am - - - - - SE 28 33 15 18 1009.4 - -
25/03:00am - - - - - SE 32 37 17 20 1009.7 1009.7 -
25/02:30am - - - - - SE 30 33 16 18 1010.0 - -
25/02:00am - - - - - SE 28 33 15 18 1010.1 1010.1 -
25/01:30am - - - - - SE 28 33 15 18 1010.3 - -
25/01:00am - - - - - SE 26 30 14 16 1010.6 1010.6 -
25/12:30am - - - - - SE 22 28 12 15 1011.1 - -
25/12:00am - - - - - SSE 26 30 14 16 1011.4 1011.4 -
 
Date/Time
EST
Temp
°C
App
Temp
°C
Dew
Point
Rel
Hum
%
Delta-T
°C
Wind Press
QNH
hPa
Press
MSL
hPa
Rain
since 9 am
mm
Dir
 
Spd
km/h
Gust
km/h
Spd
kts
Gust
kts
24/11:30pm - - - - - SSE 28 30 15 16 1011.6 - -
24/11:00pm - - - - - SSE 32 35 17 19 1011.8 1011.8 -
24/10:30pm - - - - - SE 32 37 17 20 1011.9 - -
24/10:00pm - - - - - SE 30 35 16 19 1012.1 1012.1 -
24/09:30pm - - - - - SE 32 35 17 19 1012.1 - -
24/09:00pm - - - - - SE 32 37 17 20 1011.8 1011.8 -
24/08:30pm - - - - - SE 30 35 16 19 1011.6 - -
24/08:00pm - - - - - SE 30 35 16 19 1011.2 1011.2 -
24/07:30pm - - - - - SE 26 30 14 16 1010.7 - -
24/07:00pm - - - - - SE 24 28 13 15 1010.4 1010.4 -
24/06:30pm - - - - - SE 24 28 13 15 1010.0 - -
24/06:00pm - - - - - SE 22 24 12 13 1010.0 1010.0 -
24/05:30pm - - - - - SE 20 24 11 13 1009.8 - -
24/05:00pm - - - - - ESE 22 28 12 15 1009.4 1009.4 -
24/04:30pm - - - - - ESE 24 28 13 15 1009.0 - -
24/04:00pm - - - - - ESE 26 32 14 17 1008.8 1008.8 -
24/03:30pm - - - - - E 28 33 15 18 1008.8 - -
24/03:00pm - - - - - E 24 28 13 15 1009.0 1009.0 -
24/02:30pm - - - - - ESE 22 30 12 16 1009.0 - -
24/02:00pm - - - - - ESE 22 28 12 15 1009.2 1009.2 -
24/01:30pm - - - - - ESE 26 32 14 17 1009.5 - -
24/01:00pm - - - - - ESE 26 32 14 17 1009.6 1009.6 -
24/12:30pm - - - - - ESE 28 32 15 17 1010.1 - -
24/12:00pm - - - - - ESE 28 33 15 18 1010.5 1010.5 -
24/11:30am - - - - - ESE 26 32 14 17 1011.0 - -
24/11:00am - - - - - ESE 30 35 16 19 1011.5 1011.5 -
24/10:30am - - - - - ESE 28 35 15 19 1011.8 - -
24/10:00am - - - - - S 26 32 14 17 1011.9 1011.9 -
24/09:30am - - - - - S 24 28 13 15 1011.8 - -
24/09:00am - - - - - SSE 30 39 16 21 1011.6 1011.6 -
24/08:30am - - - - - SE 28 33 15 18 1011.5 - -
24/08:00am - - - - - SSE 28 32 15 17 1011.2 1011.2 -
24/07:30am - - - - - SSE 30 35 16 19 1010.9 - -
24/07:00am - - - - - SSE 32 37 17 20 1010.7 1010.7 -
24/06:30am - - - - - SSE 37 43 20 23 1010.2 - -
24/06:00am - - - - - SSE 39 48 21 26 1009.7 1009.7 -
24/05:30am - - - - - SSE 37 43 20 23 1009.6 - -
24/05:00am - - - - - SSE 39 46 21 25 1009.4 1009.4 -
24/04:30am - - - - - SSE 37 46 20 25 1009.4 - -
24/04:00am - - - - - SSE 35 41 19 22 1009.4 1009.4 -
24/03:30am - - - - - SSE 39 44 21 24 1009.5 - -
24/03:00am - - - - - S 39 46 21 25 1009.5 1009.5 -
24/02:30am - - - - - SSE 37 43 20 23 1010.0 - -
24/02:00am - - - - - SSE 41 48 22 26 1010.4 1010.4 -
24/01:30am - - - - - SSE 43 48 23 26 1010.8 - -
24/01:00am - - - - - SSE 44 52 24 28 1010.8 1010.8 -
24/12:30am - - - - - SSE 39 46 21 25 1011.4 - -
24/12:00am - - - - - SSE 35 43 19 23 1011.8 1011.8 -
 
Date/Time
EST
Temp
°C
App
Temp
°C
Dew
Point
Rel
Hum
%
Delta-T
°C
Wind Press
QNH
hPa
Press
MSL
hPa
Rain
since 9 am
mm
Dir
 
Spd
km/h
Gust
km/h
Spd
kts
Gust
kts
23/11:30pm - - - - - SSE 35 43 19 23 1012.0 - -
23/11:00pm - - - - - SSE 41 48 22 26 1012.3 1012.3 -
23/10:30pm - - - - - SSE 35 41 19 22 1012.4 - -
23/10:00pm - - - - - S 32 39 17 21 1012.5 1012.5 -
23/09:30pm - - - - - SSE 37 44 20 24 1012.4 - -
23/09:00pm - - - - - S 41 48 22 26 1012.0 1012.0 -
23/08:30pm - - - - - SSE 35 44 19 24 1012.0 - -
23/08:00pm - - - - - S 37 41 20 22 1011.4 1011.4 -
23/07:30pm - - - - - S 33 39 18 21 1011.2 - -
23/07:00pm - - - - - SSE 35 43 19 23 1011.1 1011.1 -
23/06:30pm - - - - - SSE 32 39 17 21 1010.8 - -
23/06:00pm - - - - - S 30 33 16 18 1010.8 1010.8 -
23/05:30pm - - - - - S 33 39 18 21 1010.5 - -
23/05:00pm - - - - - SSE 35 41 19 22 1010.2 1010.2 -
23/04:30pm - - - - - S 33 41 18 22 1010.2 - -
23/04:00pm - - - - - S 35 43 19 23 1010.2 1010.2 -
23/03:30pm - - - - - S 33 41 18 22 1010.0 - -
23/03:00pm - - - - - S 32 35 17 19 1010.1 1010.1 -
23/02:30pm - - - - - SSE 32 35 17 19 1010.3 - -
23/02:00pm - - - - - SSE 33 39 18 21 1010.4 1010.4 -
23/01:30pm - - - - - SSE 35 41 19 22 1010.7 - -
23/01:00pm - - - - - SSE 33 39 18 21 1010.9 1010.9 -
23/12:30pm - - - - - S 33 39 18 21 1011.4 - -
23/12:00pm - - - - - SSE 32 37 17 20 1012.1 1012.1 -
23/11:30am - - - - - SSE 28 33 15 18 1012.5 - -
23/11:00am - - - - - SSE 26 37 14 20 1012.9 1012.9 -
23/10:30am - - - - - SE 28 37 15 20 1013.3 - -
23/10:00am - - - - - SSE 32 39 17 21 1013.2 1013.2 -
23/09:30am - - - - - SE 32 41 17 22 1013.1 - -
23/09:00am - - - - - SE 32 35 17 19 1013.2 1013.2 -
23/08:30am - - - - - SSE 24 30 13 16 1012.9 - -
23/08:00am - - - - - SSE 30 33 16 18 1012.7 1012.7 -
23/07:30am - - - - - SSE 30 35 16 19 1012.4 - -
23/07:00am - - - - - SSE 32 37 17 20 1012.1 1012.1 -
23/06:30am - - - - - SSE 37 43 20 23 1011.6 - -
23/06:00am - - - - - SE 35 41 19 22 1011.5 1011.5 -
23/05:30am - - - - - SSE 33 39 18 21 1011.2 - -
23/05:00am - - - - - SSE 37 41 20 22 1011.1 1011.1 -
23/04:30am - - - - - SSE 37 43 20 23 1011.1 - -
23/04:00am - - - - - SSE 37 43 20 23 1011.1 1011.1 -
23/03:30am - - - - - SSE 37 43 20 23 1011.2 - -
23/03:00am - - - - - SSE 37 44 20 24 1011.3 1011.3 -
23/02:30am - - - - - SSE 32 41 17 22 1011.6 - -
23/02:00am - - - - - SE 35 44 19 24 1012.1 1012.1 -
23/01:30am - - - - - SSE 37 44 20 24 1012.3 - -
23/01:00am - - - - - SSE 35 41 19 22 1012.6 1012.6 -
23/12:30am - - - - - SSE 35 41 19 22 1013.2 - -
23/12:00am - - - - - SSE 35 41 19 22 1013.6 1013.6 -
 
Date/Time
EST
Temp
°C
App
Temp
°C
Dew
Point
Rel
Hum
%
Delta-T
°C
Wind Press
QNH
hPa
Press
MSL
hPa
Rain
since 9 am
mm
Dir
 
Spd
km/h
Gust
km/h
Spd
kts
Gust
kts
22/11:30pm - - - - - SSE 33 41 18 22 1013.6 - -
22/11:00pm - - - - - SSE 33 39 18 21 1013.9 1013.9 -
22/10:30pm - - - - - S 32 35 17 19 1014.0 - -
22/10:00pm - - - - - SSE 32 41 17 22 1014.1 1014.1 -
22/09:30pm - - - - - SSE 35 41 19 22 1014.3 - -
22/09:00pm - - - - - SSE 35 41 19 22 1014.3 1014.3 -
22/08:30pm - - - - - SSE 35 41 19 22 1014.3 - -
22/08:00pm - - - - - SSE 37 43 20 23 1013.9 1013.9 -
22/07:30pm - - - - - SSE 33 37 18 20 1013.7 - -
22/07:00pm - - - - - SSE 35 41 19 22 1013.4 1013.4 -
22/06:30pm - - - - - SSE 33 39 18 21 1013.4 - -
22/06:00pm - - - - - SSE 33 39 18 21 1013.2 1013.2 -
22/05:30pm - - - - - SSE 30 35 16 19 1013.1 - -
22/05:00pm - - - - - SSE 28 33 15 18 1012.8 1012.8 -
22/04:30pm - - - - - SE 26 32 14 17 1012.7 - -
22/04:00pm - - - - - SE 26 30 14 16 1012.7 1012.7 -
22/03:30pm - - - - - SE 26 32 14 17 1012.6 - -
22/03:00pm - - - - - SE 26 30 14 16 1012.7 1012.7 -
22/02:30pm - - - - - SE 26 33 14 18 1012.9 - -
22/02:00pm - - - - - SE 24 28 13 15 1013.3 1013.3 -
22/01:30pm - - - - - SE 24 30 13 16 1013.6 - -
22/01:00pm - - - - - SE 26 30 14 16 1014.1 1014.1 -
22/12:30pm - - - - - SE 30 33 16 18 1014.4 - -
22/12:00pm - - - - - SE 30 35 16 19 1014.9 1014.9 -
22/11:30am - - - - - SE 30 35 16 19 1015.2 - -
22/11:00am - - - - - SE 32 37 17 20 1015.6 1015.6 -
22/10:30am - - - - - ESE 33 39 18 21 1015.7 - -
22/10:00am - - - - - ESE 32 37 17 20 1016.0 1016.0 -
22/09:30am - - - - - ESE 33 37 18 20 1015.9 - -
22/09:00am - - - - - ESE 32 37 17 20 1015.7 1015.7 -
22/08:30am - - - - - ESE 35 43 19 23 1015.3 - -
22/08:00am - - - - - ESE 39 44 21 24 1015.0 1015.0 -

Other Formats:

Comma delimited format used in spreadsheet applications
http://www.bom.gov.au/fwo/IDQ60801/IDQ60801.94284.axf

JavaScript Object Notation format (JSON) in row-major order
http://www.bom.gov.au/fwo/IDQ60801/IDQ60801.94284.json